Port Mansfield, Texas
Current Conditions -  °F | °C
As of 4:52 PM on Thursday 23 Oct 2014 (Local Time) from KHRL Reporting Station
Few Clouds Few Clouds  
Wind Chill: 84°   Ceiling: Unl
Heat Index: 85°   Visibility: 10mi
Dew Point: 64°   Wind: 8mph
Humidity: 51%   Direction: 40°NE
Pressure: 30.01"   Gusts: NA
Location:  26.56°N, 97.43°W
Report Text: KHRL 232152Z 04007KT 10SM FEW045 29/18 A3001 RMK AO2 SLP161 T02890178
Loading
Personal Weather Stations






























Interactive Weather Map
Tropical Storm Tracking
New forecast layout! Learn more

10-Day Weather Forecast

Advertisements
Track Severe Weather on mobile